createdAt,value
2018-12-27T00:01:47.023Z,35.43
2018-12-27T00:04:16.082Z,37.60
2018-12-27T00:06:45.133Z,34.47
2018-12-27T00:09:14.349Z,33.67
2018-12-27T00:11:43.497Z,35.93
2018-12-27T00:14:12.864Z,35.67
2018-12-27T00:16:42.035Z,33.80
2018-12-27T00:19:11.259Z,34.57
2018-12-27T00:21:40.245Z,34.83
2018-12-27T00:24:09.235Z,35.87
2018-12-27T00:26:38.679Z,35.80
2018-12-27T00:29:07.777Z,33.77
2018-12-27T00:31:37.035Z,37.93
2018-12-27T00:34:06.311Z,33.63
2018-12-27T00:36:35.629Z,33.70
2018-12-27T00:39:05.541Z,35.10
2018-12-27T00:41:35.066Z,33.83
2018-12-27T00:44:04.191Z,34.60
2018-12-27T00:46:33.469Z,33.07
2018-12-27T00:49:02.539Z,32.90
2018-12-27T00:51:32.360Z,33.10
2018-12-27T00:54:01.536Z,32.83
2018-12-27T00:56:30.600Z,33.43
2018-12-27T00:58:59.865Z,34.50
2018-12-27T01:01:29.027Z,34.00
2018-12-27T01:03:58.056Z,34.00
2018-12-27T01:06:27.190Z,32.73
2018-12-27T01:08:56.474Z,32.83
2018-12-27T01:11:26.240Z,31.60
2018-12-27T01:13:55.288Z,31.60
2018-12-27T01:16:24.331Z,33.30
2018-12-27T01:18:53.430Z,31.37
2018-12-27T01:21:22.600Z,32.40
2018-12-27T01:23:51.633Z,32.47
2018-12-27T01:26:20.774Z,30.87
2018-12-27T01:28:49.952Z,32.20
2018-12-27T01:31:19.112Z,31.83
2018-12-27T01:33:48.219Z,31.67
2018-12-27T01:36:17.376Z,31.33
2018-12-27T01:38:46.493Z,31.10
2018-12-27T01:41:15.544Z,29.60
2018-12-27T01:43:44.644Z,30.30
2018-12-27T01:46:13.983Z,29.30
2018-12-27T01:48:43.078Z,29.93
2018-12-27T01:51:12.157Z,30.93
2018-12-27T01:53:41.352Z,30.37
2018-12-27T01:56:10.556Z,28.40
2018-12-27T01:58:39.586Z,29.50
2018-12-27T02:01:08.712Z,27.40
2018-12-27T02:03:37.706Z,30.73
2018-12-27T02:06:07.294Z,28.00
2018-12-27T02:08:36.358Z,27.87
2018-12-27T02:11:05.564Z,28.00
2018-12-27T02:13:34.598Z,29.70
2018-12-27T02:16:03.727Z,26.20
2018-12-27T02:18:33.054Z,25.40
2018-12-27T02:21:02.190Z,25.00
2018-12-27T02:23:31.244Z,26.40
2018-12-27T02:26:00.418Z,25.53
2018-12-27T02:28:29.611Z,24.30
2018-12-27T02:30:58.792Z,25.53
2018-12-27T02:33:35.038Z,26.13
2018-12-27T02:35:58.747Z,25.20
2018-12-27T02:38:27.809Z,24.53
2018-12-27T02:40:56.860Z,26.63
2018-12-27T02:43:25.982Z,25.47
2018-12-27T02:45:55.767Z,25.63
2018-12-27T02:48:24.961Z,27.10
2018-12-27T02:50:54.284Z,25.03
2018-12-27T02:53:23.314Z,25.47
2018-12-27T02:55:52.378Z,25.40
2018-12-27T02:58:21.492Z,28.13
2018-12-27T03:00:50.717Z,24.53
2018-12-27T03:03:19.783Z,25.20
2018-12-27T03:05:48.821Z,26.70
2018-12-27T03:08:17.933Z,23.83
2018-12-27T03:10:47.049Z,24.70
2018-12-27T03:13:18.746Z,27.10
2018-12-27T03:15:47.884Z,25.70
2018-12-27T03:18:17.031Z,22.57
2018-12-27T03:20:46.096Z,23.80
2018-12-27T03:23:15.321Z,26.27
2018-12-27T03:25:44.303Z,24.27
2018-12-27T03:28:13.311Z,24.00
2018-12-27T03:30:42.342Z,23.57
2018-12-27T03:33:11.537Z,24.30
2018-12-27T03:35:40.604Z,21.87
2018-12-27T03:38:09.833Z,23.60
2018-12-27T03:40:38.895Z,22.37
2018-12-27T03:43:07.989Z,22.23
2018-12-27T03:45:37.094Z,22.43
2018-12-27T03:48:06.137Z,21.27
2018-12-27T03:50:35.180Z,21.87
2018-12-27T03:53:04.245Z,20.20
2018-12-27T03:55:33.339Z,21.77
2018-12-27T03:58:02.494Z,21.83
2018-12-27T04:00:31.569Z,20.77
2018-12-27T04:03:00.683Z,20.40
2018-12-27T04:05:30.263Z,23.00
2018-12-27T04:07:59.836Z,20.77
2018-12-27T04:10:28.864Z,23.70
2018-12-27T04:12:57.965Z,20.50
2018-12-27T04:15:26.931Z,20.57
2018-12-27T04:17:55.974Z,22.00
2018-12-27T04:20:24.990Z,20.20
2018-12-27T04:22:54.060Z,20.50
2018-12-27T04:25:24.209Z,22.13
2018-12-27T04:27:53.239Z,20.13
2018-12-27T04:30:22.306Z,20.80
2018-12-27T04:32:51.851Z,22.00
2018-12-27T04:35:20.984Z,20.83
2018-12-27T04:37:49.896Z,21.07
2018-12-27T04:40:18.794Z,19.63
2018-12-27T04:42:47.869Z,18.77
2018-12-27T04:45:16.770Z,17.73
2018-12-27T04:47:45.667Z,19.20
2018-12-27T04:50:14.652Z,15.57
2018-12-27T04:52:43.558Z,18.93
2018-12-27T04:55:12.938Z,17.77
2018-12-27T04:57:41.822Z,17.33
2018-12-27T05:00:10.860Z,16.40
2018-12-27T05:02:39.821Z,16.57
2018-12-27T05:05:09.009Z,15.70
2018-12-27T05:07:38.105Z,15.27
2018-12-27T05:10:07.030Z,16.10
2018-12-27T05:12:36.020Z,15.63
2018-12-27T05:15:05.221Z,16.10
2018-12-27T05:17:34.217Z,15.23
2018-12-27T05:20:03.268Z,15.20
2018-12-27T05:22:32.216Z,14.90
2018-12-27T05:25:01.169Z,15.57
2018-12-27T05:27:30.190Z,16.07
2018-12-27T05:29:59.385Z,16.30
2018-12-27T05:32:28.312Z,16.00
2018-12-27T05:34:57.916Z,16.13
2018-12-27T05:37:26.883Z,16.50
2018-12-27T05:39:56.042Z,17.33
2018-12-27T05:42:24.966Z,16.97
2018-12-27T05:44:53.958Z,16.03
2018-12-27T05:47:22.868Z,15.27
2018-12-27T05:49:52.046Z,14.07
2018-12-27T05:52:21.103Z,14.40
2018-12-27T05:54:50.114Z,13.20
2018-12-27T05:57:19.132Z,12.50
2018-12-27T05:59:48.116Z,13.00
2018-12-27T06:02:17.148Z,12.60
2018-12-27T06:04:46.138Z,12.90
2018-12-27T06:07:15.093Z,13.20
2018-12-27T06:09:44.294Z,12.13
2018-12-27T06:12:13.516Z,12.10
2018-12-27T06:14:42.472Z,12.00
2018-12-27T06:17:11.674Z,13.30
2018-12-27T06:19:40.658Z,12.10
2018-12-27T06:22:09.593Z,12.90
2018-12-27T06:24:38.650Z,12.10
2018-12-27T06:27:07.675Z,13.30
2018-12-27T06:29:36.685Z,12.80
2018-12-27T06:32:07.833Z,12.50
2018-12-27T06:34:41.319Z,13.93
2018-12-27T06:37:07.451Z,12.80
2018-12-27T06:39:36.502Z,11.60
2018-12-27T06:42:05.384Z,11.10
2018-12-27T06:44:34.321Z,12.00
2018-12-27T06:47:04.081Z,11.83
2018-12-27T06:49:33.113Z,11.13
2018-12-27T06:52:02.040Z,12.70
2018-12-27T06:54:30.935Z,12.90
2018-12-27T06:56:59.911Z,12.40
2018-12-27T06:59:28.881Z,13.73
2018-12-27T07:01:57.915Z,13.40
2018-12-27T07:04:26.881Z,12.77
2018-12-27T07:06:56.027Z,12.40
2018-12-27T07:09:24.923Z,12.30
2018-12-27T07:11:53.913Z,14.67
2018-12-27T07:14:22.983Z,12.57
2018-12-27T07:16:51.953Z,12.50
2018-12-27T07:19:20.944Z,13.27
2018-12-27T07:21:49.939Z,12.37
2018-12-27T07:24:18.851Z,12.93
2018-12-27T07:26:47.759Z,13.47
2018-12-27T07:29:16.690Z,13.23
2018-12-27T07:31:45.645Z,15.07
2018-12-27T07:34:14.538Z,12.57
2018-12-27T07:36:43.649Z,14.83
2018-12-27T07:39:12.768Z,14.43
2018-12-27T07:41:42.171Z,14.10
2018-12-27T07:44:11.207Z,13.27
2018-12-27T07:46:40.442Z,13.47
2018-12-27T07:49:28.512Z,14.73
2018-12-27T07:52:16.536Z,14.70
2018-12-27T07:55:04.769Z,15.30
2018-12-27T07:57:53.540Z,15.50
2018-12-27T08:00:41.625Z,15.97
2018-12-27T08:03:29.705Z,16.03
2018-12-27T08:06:17.739Z,15.60
2018-12-27T08:08:46.668Z,15.10
2018-12-27T08:11:34.777Z,16.97
2018-12-27T08:14:03.743Z,16.73
2018-12-27T08:16:51.796Z,16.20
2018-12-27T08:19:39.902Z,16.73
2018-12-27T08:22:28.022Z,16.10
2018-12-27T08:25:16.140Z,17.67
2018-12-27T08:28:04.183Z,15.83
2018-12-27T08:30:52.286Z,18.33
2018-12-27T08:33:40.324Z,16.80
2018-12-27T08:36:09.149Z,16.43
2018-12-27T08:38:50.058Z,17.63
2018-12-27T08:41:31.199Z,16.23
2018-12-27T08:46:54.344Z,17.03
2018-12-27T08:49:35.148Z,18.10
2018-12-27T08:52:15.698Z,18.60
2018-12-27T08:54:56.588Z,17.93
2018-12-27T08:57:37.353Z,18.10
2018-12-27T09:00:18.161Z,18.60
2018-12-27T09:02:58.957Z,16.67
2018-12-27T09:05:39.900Z,17.10
2018-12-27T09:08:20.944Z,18.63
2018-12-27T09:11:01.826Z,18.00
2018-12-27T09:13:42.736Z,20.70
2018-12-27T09:16:23.476Z,18.57
2018-12-27T09:18:52.582Z,20.00
2018-12-27T09:21:40.715Z,19.33
2018-12-27T09:24:28.824Z,19.90
2018-12-27T09:27:16.871Z,19.87
2018-12-27T09:30:05.236Z,19.67
2018-12-27T09:32:53.339Z,19.20
2018-12-27T09:35:41.430Z,18.83
2018-12-27T09:38:29.478Z,18.30
2018-12-27T09:41:17.586Z,18.53
2018-12-27T09:43:46.519Z,18.63
2018-12-27T09:46:15.419Z,18.60
2018-12-27T09:48:44.560Z,19.00
2018-12-27T09:51:13.612Z,20.10
2018-12-27T09:53:42.632Z,19.00
2018-12-27T09:56:11.691Z,20.50
2018-12-27T09:58:40.591Z,19.00
2018-12-27T10:01:09.567Z,20.63
2018-12-27T10:03:38.584Z,20.10
2018-12-27T10:06:07.695Z,20.20
2018-12-27T10:08:36.673Z,18.80
2018-12-27T10:11:05.839Z,18.57
2018-12-27T10:13:34.804Z,18.13
2018-12-27T10:16:03.769Z,20.80
2018-12-27T10:18:32.808Z,18.07
2018-12-27T10:21:01.883Z,21.23
2018-12-27T10:23:30.841Z,18.93
2018-12-27T10:26:00.004Z,17.00
2018-12-27T10:28:29.033Z,19.47
2018-12-27T10:30:59.857Z,19.53
2018-12-27T10:33:28.555Z,19.27
2018-12-27T10:35:57.715Z,19.43
2018-12-27T10:38:26.640Z,18.40
2018-12-27T10:40:55.634Z,18.37
2018-12-27T10:43:24.521Z,17.70
2018-12-27T10:45:53.631Z,16.13
2018-12-27T10:48:22.673Z,19.03
2018-12-27T10:50:51.655Z,17.67
2018-12-27T10:53:20.711Z,16.70
2018-12-27T10:55:49.799Z,17.87
2018-12-27T10:58:18.793Z,17.47
2018-12-27T11:00:47.948Z,18.67
2018-12-27T11:03:16.939Z,18.97
2018-12-27T11:05:48.781Z,17.50
2018-12-27T11:08:16.581Z,17.30
2018-12-27T11:10:45.605Z,17.53
2018-12-27T11:13:14.531Z,17.60
2018-12-27T11:15:43.478Z,17.57
2018-12-27T11:18:12.640Z,16.70
2018-12-27T11:20:41.733Z,16.30
2018-12-27T11:23:10.840Z,15.57
2018-12-27T11:25:39.675Z,14.87
2018-12-27T11:28:08.768Z,16.53
2018-12-27T11:30:37.849Z,16.57
2018-12-27T11:33:06.854Z,16.80
2018-12-27T11:35:35.858Z,16.17
2018-12-27T11:38:04.942Z,15.33
2018-12-27T11:40:33.921Z,16.10
2018-12-27T11:43:02.863Z,15.83
2018-12-27T11:45:31.899Z,16.37
2018-12-27T11:48:00.787Z,14.63
2018-12-27T11:50:29.804Z,16.23
2018-12-27T11:52:58.799Z,14.57
2018-12-27T11:55:27.809Z,14.60
2018-12-27T11:57:56.883Z,15.03
2018-12-27T12:00:26.086Z,15.10
2018-12-27T12:02:55.240Z,14.97
2018-12-27T12:05:24.279Z,16.23
2018-12-27T12:07:53.821Z,16.20
2018-12-27T12:10:22.856Z,16.27
2018-12-27T12:12:51.970Z,15.33
2018-12-27T12:15:20.979Z,15.77
2018-12-27T12:17:49.937Z,15.70
2018-12-27T12:20:18.889Z,16.07
2018-12-27T12:22:48.050Z,17.03
2018-12-27T12:25:17.209Z,15.57
2018-12-27T12:27:46.346Z,16.90
2018-12-27T12:30:15.450Z,17.40
2018-12-27T12:32:44.718Z,16.43
2018-12-27T12:35:13.810Z,15.67
2018-12-27T12:37:43.087Z,16.30
2018-12-27T12:40:12.207Z,15.77
2018-12-27T12:42:41.094Z,17.80
2018-12-27T12:45:10.168Z,18.00
2018-12-27T12:47:39.158Z,16.57
2018-12-27T12:50:08.999Z,16.20
2018-12-27T12:52:39.256Z,17.10
2018-12-27T12:55:08.435Z,16.17
2018-12-27T12:57:37.534Z,16.63
2018-12-27T13:00:09.304Z,16.23
2018-12-27T13:02:38.516Z,17.30
2018-12-27T13:05:07.612Z,17.70
2018-12-27T13:07:36.591Z,16.20
2018-12-27T13:10:05.917Z,17.30
2018-12-27T13:12:34.974Z,15.93
2018-12-27T13:15:04.192Z,16.37
2018-12-27T13:17:33.174Z,17.67
2018-12-27T13:20:02.163Z,15.63
2018-12-27T13:22:31.212Z,17.20
2018-12-27T13:25:00.233Z,16.97
2018-12-27T13:27:29.679Z,15.57
2018-12-27T13:29:58.624Z,17.17
2018-12-27T13:32:27.470Z,16.03
2018-12-27T13:34:56.362Z,15.87
2018-12-27T13:37:25.286Z,15.87
2018-12-27T13:39:54.470Z,16.10
2018-12-27T13:42:23.425Z,16.83
2018-12-27T13:44:52.517Z,16.47
2018-12-27T13:47:21.584Z,16.37
2018-12-27T13:49:50.593Z,15.70
2018-12-27T13:52:19.426Z,18.03
2018-12-27T13:54:48.598Z,16.80
2018-12-27T13:57:17.712Z,16.87
2018-12-27T13:59:46.883Z,15.80
2018-12-27T14:02:15.938Z,17.33
2018-12-27T14:04:44.953Z,17.23
2018-12-27T14:07:13.821Z,17.60
2018-12-27T14:09:42.869Z,16.57
2018-12-27T14:12:11.911Z,17.53
2018-12-27T14:14:41.019Z,16.90
2018-12-27T14:17:10.103Z,18.33
2018-12-27T14:19:39.201Z,17.90
2018-12-27T14:22:08.473Z,18.07
2018-12-27T14:24:37.607Z,18.50
2018-12-27T14:27:06.743Z,17.00
2018-12-27T14:29:35.981Z,16.53
2018-12-27T14:32:05.075Z,19.40
2018-12-27T14:34:34.083Z,19.33
2018-12-27T14:37:03.163Z,18.30
2018-12-27T14:39:32.284Z,18.90
2018-12-27T14:42:01.334Z,20.03
2018-12-27T14:44:30.263Z,17.57
2018-12-27T14:46:59.356Z,17.90
2018-12-27T14:49:28.315Z,18.93
2018-12-27T14:51:57.230Z,19.30
2018-12-27T14:54:26.205Z,18.10
2018-12-27T14:56:55.200Z,16.90
2018-12-27T14:59:24.202Z,18.40
2018-12-27T15:01:53.255Z,17.80
2018-12-27T15:04:22.173Z,17.30
2018-12-27T15:06:51.531Z,18.47
2018-12-27T15:09:20.773Z,18.67
2018-12-27T15:11:50.962Z,17.53
2018-12-27T15:14:19.959Z,19.00
2018-12-27T15:16:48.879Z,18.87
2018-12-27T15:19:17.793Z,18.43
2018-12-27T15:21:46.907Z,19.13
2018-12-27T15:24:15.916Z,20.30
2018-12-27T15:26:44.910Z,19.20
2018-12-27T15:29:14.129Z,21.53
2018-12-27T15:31:43.135Z,19.20
2018-12-27T15:34:11.947Z,18.17
2018-12-27T15:36:40.845Z,20.90
2018-12-27T15:39:09.719Z,20.40
2018-12-27T15:41:38.875Z,19.20
2018-12-27T15:44:07.803Z,20.77
2018-12-27T15:46:36.772Z,20.67
2018-12-27T15:49:06.099Z,20.63
2018-12-27T15:51:35.316Z,19.43
2018-12-27T15:54:04.575Z,22.47
2018-12-27T15:56:33.523Z,21.60
2018-12-27T15:59:02.489Z,22.60
2018-12-27T16:01:31.559Z,23.10
2018-12-27T16:04:00.559Z,21.03
2018-12-27T16:06:29.410Z,23.43
2018-12-27T16:08:58.502Z,21.80
2018-12-27T16:11:27.479Z,22.60
2018-12-27T16:13:56.516Z,21.37
2018-12-27T16:16:25.588Z,21.40
2018-12-27T16:18:54.498Z,22.03
2018-12-27T16:21:23.592Z,21.60
2018-12-27T16:23:52.596Z,21.13
2018-12-27T16:26:21.555Z,22.57
2018-12-27T16:28:50.468Z,22.87
2018-12-27T16:31:19.725Z,22.50
2018-12-27T16:33:48.869Z,23.20
2018-12-27T16:36:17.935Z,23.33
2018-12-27T16:38:47.014Z,22.33
2018-12-27T16:41:16.366Z,21.97
2018-12-27T16:43:45.344Z,20.53
2018-12-27T16:46:14.287Z,19.60
2018-12-27T16:48:43.284Z,21.17
2018-12-27T16:51:12.254Z,23.37
2018-12-27T16:53:41.536Z,20.97
2018-12-27T16:56:10.580Z,19.67
2018-12-27T16:58:39.573Z,21.00
2018-12-27T17:01:08.513Z,21.07
2018-12-27T17:03:37.657Z,20.67
2018-12-27T17:06:06.606Z,21.43
2018-12-27T17:08:35.580Z,21.83
2018-12-27T17:11:04.626Z,20.47
2018-12-27T17:13:33.661Z,20.30
2018-12-27T17:16:02.681Z,20.40
2018-12-27T17:18:31.672Z,18.20
2018-12-27T17:21:00.803Z,21.00
2018-12-27T17:23:29.837Z,19.60
2018-12-27T17:25:59.061Z,19.00
2018-12-27T17:28:28.282Z,21.40
2018-12-27T17:30:57.327Z,21.47
2018-12-27T17:33:26.447Z,21.20
2018-12-27T17:35:55.927Z,20.70
2018-12-27T17:38:24.823Z,18.80
2018-12-27T17:40:53.837Z,19.47
2018-12-27T17:43:22.872Z,17.20
2018-12-27T17:45:51.866Z,18.40
2018-12-27T17:48:20.857Z,19.13
2018-12-27T17:50:49.790Z,16.87
2018-12-27T17:53:18.757Z,17.07
2018-12-27T17:55:47.697Z,18.90
2018-12-27T17:58:18.004Z,18.70
2018-12-27T18:00:46.845Z,16.53
2018-12-27T18:03:15.900Z,16.30
2018-12-27T18:05:45.855Z,16.20
2018-12-27T18:08:14.693Z,17.30
2018-12-27T18:10:43.651Z,17.70
2018-12-27T18:13:12.606Z,17.90
2018-12-27T18:15:41.679Z,18.20
2018-12-27T18:18:10.771Z,18.33
2018-12-27T18:20:40.929Z,19.27
2018-12-27T18:23:10.291Z,17.60
2018-12-27T18:25:39.292Z,17.50
2018-12-27T18:28:08.292Z,17.77
2018-12-27T18:30:37.212Z,16.50
2018-12-27T18:33:06.162Z,17.83
2018-12-27T18:35:35.159Z,18.00
2018-12-27T18:38:04.183Z,15.93
2018-12-27T18:40:33.213Z,16.27
2018-12-27T18:43:02.180Z,18.43
2018-12-27T18:45:31.154Z,17.30
2018-12-27T18:48:00.168Z,20.20
2018-12-27T18:50:29.224Z,19.57
2018-12-27T18:52:58.312Z,17.13
2018-12-27T18:55:27.828Z,16.17
2018-12-27T18:57:56.740Z,18.00
2018-12-27T19:00:25.816Z,17.13
2018-12-27T19:02:56.045Z,17.40
2018-12-27T19:05:25.194Z,16.17
2018-12-27T19:07:54.452Z,17.40
2018-12-27T19:10:23.550Z,17.33
2018-12-27T19:13:08.925Z,17.83
2018-12-27T19:16:02.502Z,15.37
2018-12-27T19:18:39.988Z,16.37
2018-12-27T19:21:25.157Z,15.97
2018-12-27T19:23:54.145Z,16.63
2018-12-27T19:26:23.291Z,16.27
2018-12-27T19:28:52.284Z,16.80
2018-12-27T19:31:21.314Z,17.50
2018-12-27T19:33:50.436Z,16.30
2018-12-27T19:36:19.580Z,17.10
2018-12-27T19:38:48.726Z,17.30
2018-12-27T19:41:17.758Z,17.07
2018-12-27T19:43:47.328Z,15.73
2018-12-27T19:46:16.369Z,16.10
2018-12-27T19:48:45.419Z,20.30
2018-12-27T19:51:14.463Z,16.10
2018-12-27T19:53:43.500Z,16.80
2018-12-27T19:56:12.597Z,18.07
2018-12-27T19:58:41.892Z,17.07
2018-12-27T20:01:10.956Z,17.70
2018-12-27T20:03:39.986Z,15.10
2018-12-27T20:06:09.179Z,16.60
2018-12-27T20:08:38.438Z,17.20
2018-12-27T20:11:07.623Z,17.57
2018-12-27T20:13:36.640Z,18.00
2018-12-27T20:16:05.798Z,17.70
2018-12-27T20:18:34.750Z,18.10
2018-12-27T20:21:03.942Z,18.00
2018-12-27T20:23:33.241Z,18.63
2018-12-27T20:26:02.412Z,17.03
2018-12-27T20:28:32.736Z,18.73
2018-12-27T20:31:01.962Z,18.67
2018-12-27T20:33:31.039Z,20.73
2018-12-27T20:35:59.967Z,19.20
2018-12-27T20:38:29.050Z,20.13
2018-12-27T20:40:58.121Z,19.90
2018-12-27T20:43:27.722Z,20.03
2018-12-27T20:45:56.750Z,19.90
2018-12-27T20:48:25.713Z,18.90
2018-12-27T20:50:54.830Z,20.87
2018-12-27T20:53:23.991Z,20.07
2018-12-27T20:55:53.083Z,22.00
2018-12-27T20:58:22.318Z,20.80
2018-12-27T21:00:51.379Z,21.13
2018-12-27T21:03:20.505Z,22.33
2018-12-27T21:05:49.915Z,22.80
2018-12-27T21:08:19.663Z,22.70
2018-12-27T21:10:49.570Z,20.63
2018-12-27T21:13:18.632Z,21.97
2018-12-27T21:15:47.704Z,19.73
2018-12-27T21:18:16.879Z,21.43
2018-12-27T21:20:45.871Z,22.83
2018-12-27T21:23:15.132Z,22.27
2018-12-27T21:25:44.314Z,20.60
2018-12-27T21:28:13.445Z,23.67
2018-12-27T21:30:42.707Z,21.90
2018-12-27T21:33:11.656Z,22.60
2018-12-27T21:35:40.645Z,22.67
2018-12-27T21:38:09.785Z,21.70
2018-12-27T21:40:39.293Z,23.23
2018-12-27T21:43:08.421Z,20.47
2018-12-27T21:45:37.548Z,22.00
2018-12-27T21:48:06.884Z,22.10
2018-12-27T21:50:55.506Z,21.77
2018-12-27T21:56:01.958Z,24.13
2018-12-27T21:58:31.600Z,22.10
2018-12-27T22:04:06.012Z,22.30
2018-12-27T22:06:54.243Z,23.87
2018-12-27T22:09:44.545Z,25.67
2018-12-27T22:12:33.397Z,24.97
2018-12-27T22:15:22.013Z,25.20
2018-12-27T22:24:15.018Z,26.03
2018-12-27T22:27:03.560Z,28.13
2018-12-27T22:32:54.839Z,26.40
2018-12-27T22:35:45.193Z,26.23
2018-12-27T22:38:35.756Z,26.40
2018-12-27T22:41:04.935Z,28.57
2018-12-27T22:43:34.288Z,26.00
2018-12-27T22:46:24.288Z,26.73
2018-12-27T22:49:12.768Z,27.03
2018-12-27T22:52:01.583Z,28.73
2018-12-27T22:54:55.509Z,27.97
2018-12-27T22:57:22.088Z,27.87
2018-12-27T23:03:03.276Z,26.10
2018-12-27T23:05:55.371Z,25.83
2018-12-27T23:08:44.078Z,27.40
2018-12-27T23:14:14.495Z,26.67
2018-12-27T23:16:55.760Z,27.30
2018-12-27T23:19:36.884Z,25.30
2018-12-27T23:22:21.493Z,27.10
2018-12-27T23:25:02.662Z,26.80
2018-12-27T23:27:44.247Z,25.87
2018-12-27T23:30:13.669Z,28.53
2018-12-27T23:33:02.160Z,27.20
2018-12-27T23:35:50.691Z,26.80
2018-12-27T23:38:39.414Z,28.67
2018-12-27T23:41:29.146Z,26.87
2018-12-27T23:44:21.142Z,27.67
2018-12-27T23:47:09.768Z,28.93
2018-12-27T23:52:54.000Z,28.73
2018-12-27T23:55:42.652Z,29.07
2018-12-27T23:58:33.207Z,28.37
